Time;durP1;ratioP1;P1;durP2;ratioP2;P2;SDS_P1;SDS_P2;PMS_P1;PMS_P2;Temp;Humidity;BMP_temperature;BMP_pressure;BME280_temperature;BME280_humidity;BME280_pressure;Samples;Min_cycle;Max_cycle;Signal;HPM_P1;HPM_P2
2023/07/19 00:01:29;;;;;;;2.63;0.85;;;13.90;99.90;;;;;;5084265;28;20214;-88
2023/07/19 00:04:05;;;;;;;2.40;0.70;;;13.90;99.90;;;;;;5083889;28;20199;-87
2023/07/19 00:06:38;;;;;;;2.83;0.73;;;13.90;99.90;;;;;;5102964;28;20251;-90
2023/07/19 00:09:09;;;;;;;4.15;0.70;;;13.80;99.90;;;;;;5080348;28;20206;-87
2023/07/19 00:11:41;;;;;;;2.22;0.70;;;13.80;99.20;;;;;;5106309;28;20195;-86
2023/07/19 00:14:12;;;;;;;3.60;1.00;;;13.90;99.90;;;;;;5118829;28;20218;-85
2023/07/19 00:16:43;;;;;;;1.88;0.63;;;14.10;99.90;;;;;;5107821;28;20298;-87
2023/07/19 00:19:16;;;;;;;2.38;1.00;;;14.20;98.90;;;;;;5073381;28;20235;-87
2023/07/19 00:21:47;;;;;;;2.83;0.93;;;14.20;98.60;;;;;;5081088;28;20206;-89
2023/07/19 00:24:18;;;;;;;1.73;0.90;;;14.30;97.90;;;;;;5095426;28;20200;-90
2023/07/19 00:26:52;;;;;;;3.20;1.10;;;14.30;97.20;;;;;;5076526;28;20196;-90
2023/07/19 00:29:25;;;;;;;5.55;0.75;;;14.30;96.30;;;;;;5090301;28;20215;-87
2023/07/19 00:31:57;;;;;;;1.83;0.75;;;14.50;96.40;;;;;;5104763;28;20191;-87
2023/07/19 00:34:31;;;;;;;2.45;0.80;;;14.40;94.40;;;;;;5092676;28;20202;-89
2023/07/19 00:37:02;;;;;;;1.85;0.70;;;14.60;94.40;;;;;;5091600;28;20398;-88
2023/07/19 00:39:34;;;;;;;2.30;0.63;;;14.60;94.10;;;;;;5080431;28;20287;-90
2023/07/19 00:42:11;;;;;;;4.00;1.13;;;14.70;93.60;;;;;;5080652;28;20199;-91
2023/07/19 00:44:45;;;;;;;2.65;0.80;;;14.80;93.30;;;;;;5104694;28;20202;-90
2023/07/19 00:47:17;;;;;;;2.33;0.80;;;15.00;92.60;;;;;;5092075;28;20221;-91
2023/07/19 00:49:53;;;;;;;2.15;0.70;;;15.00;91.90;;;;;;5088503;28;20204;-89
2023/07/19 00:52:26;;;;;;;3.53;0.90;;;15.00;91.30;;;;;;5089239;28;20186;-89
2023/07/19 00:55:01;;;;;;;1.13;0.80;;;15.10;90.60;;;;;;5106628;28;20227;-84
2023/07/19 00:57:34;;;;;;;4.43;1.17;;;15.20;90.40;;;;;;5092377;28;20190;-89
2023/07/19 01:00:06;;;;;;;4.05;0.80;;;15.30;88.50;;;;;;5082155;28;20224;-88
2023/07/19 01:02:38;;;;;;;1.80;0.60;;;15.40;90.00;;;;;;5075388;28;20196;-88
2023/07/19 01:05:11;;;;;;;2.50;0.80;;;15.40;87.30;;;;;;5085108;28;20199;-88
2023/07/19 01:07:44;;;;;;;3.63;0.90;;;15.50;86.40;;;;;;5086003;28;20202;-88
2023/07/19 01:10:15;;;;;;;2.42;0.65;;;15.60;83.70;;;;;;5081262;28;20192;-86
2023/07/19 01:12:46;;;;;;;1.90;0.88;;;15.60;82.20;;;;;;5083380;28;20235;-87
2023/07/19 01:15:17;;;;;;;3.67;1.30;;;15.60;82.80;;;;;;5085354;28;20716;-86
2023/07/19 01:17:48;;;;;;;3.53;1.10;;;15.70;83.00;;;;;;5076321;28;20203;-87
2023/07/19 01:20:25;;;;;;;4.22;1.48;;;15.90;83.00;;;;;;5091300;28;20607;-89
2023/07/19 01:22:58;;;;;;;3.83;1.05;;;16.00;79.90;;;;;;5093433;28;20201;-87
2023/07/19 01:25:33;;;;;;;2.33;0.63;;;16.00;78.50;;;;;;5096425;28;20202;-86
2023/07/19 01:28:06;;;;;;;2.50;0.70;;;16.10;79.40;;;;;;5092283;28;20231;-85
2023/07/19 01:30:40;;;;;;;2.20;0.60;;;16.00;78.40;;;;;;5095207;28;20206;-89
2023/07/19 01:33:11;;;;;;;2.75;0.50;;;16.00;77.20;;;;;;5100237;28;20202;-88
2023/07/19 01:35:42;;;;;;;1.85;0.75;;;16.00;78.70;;;;;;5110950;28;20203;-87
2023/07/19 01:38:15;;;;;;;1.95;0.82;;;16.10;77.80;;;;;;5090640;28;20436;-88
2023/07/19 01:40:46;;;;;;;4.28;1.20;;;16.20;78.60;;;;;;5084429;28;20192;-88
2023/07/19 01:43:17;;;;;;;6.88;1.13;;;16.30;76.60;;;;;;5087292;28;20559;-88
2023/07/19 01:45:48;;;;;;;5.38;1.55;;;16.50;73.80;;;;;;5081183;28;20206;-88
2023/07/19 01:48:20;;;;;;;2.88;1.10;;;16.50;73.60;;;;;;5079620;28;20192;-86
2023/07/19 01:50:51;;;;;;;2.75;0.70;;;16.60;73.60;;;;;;5075616;28;20595;-86
2023/07/19 01:53:27;;;;;;;1.58;0.80;;;16.70;73.10;;;;;;5073692;28;20203;-84
2023/07/19 01:55:59;;;;;;;2.17;0.80;;;16.70;71.80;;;;;;5086647;28;20590;-86
2023/07/19 01:58:31;;;;;;;4.25;1.30;;;16.70;69.30;;;;;;5092507;28;20228;-87
2023/07/19 02:01:05;;;;;;;2.58;1.02;;;16.80;68.60;;;;;;5088877;28;20222;-87
2023/07/19 02:03:38;;;;;;;5.40;1.95;;;16.90;70.80;;;;;;5090524;28;20310;-87
2023/07/19 02:06:09;;;;;;;3.60;1.27;;;16.80;67.30;;;;;;5071809;28;20196;-88
2023/07/19 02:08:42;;;;;;;3.03;1.02;;;16.80;67.60;;;;;;5072474;28;20207;-88
2023/07/19 02:11:17;;;;;;;2.95;0.95;;;16.80;70.10;;;;;;5078227;28;20278;-90
2023/07/19 02:13:48;;;;;;;3.40;0.90;;;16.80;72.20;;;;;;5085666;28;20198;-89
2023/07/19 02:16:20;;;;;;;4.88;1.20;;;16.90;71.00;;;;;;5070690;28;20242;-89
2023/07/19 02:18:51;;;;;;;3.53;1.17;;;16.90;69.30;;;;;;5084473;28;20233;-90
2023/07/19 02:21:24;;;;;;;7.60;1.30;;;17.00;69.80;;;;;;5079097;28;20192;-90
2023/07/19 02:23:57;;;;;;;5.38;1.58;;;17.00;70.00;;;;;;5078867;28;20204;-89
2023/07/19 02:26:29;;;;;;;5.18;1.13;;;17.20;70.50;;;;;;5093442;28;20293;-88
2023/07/19 02:29:00;;;;;;;5.75;1.50;;;17.30;71.20;;;;;;5080292;28;20199;-90
2023/07/19 02:31:31;;;;;;;4.63;1.25;;;17.30;71.80;;;;;;5083433;28;20735;-88
2023/07/19 02:34:04;;;;;;;5.10;1.73;;;17.30;65.00;;;;;;5072320;28;20210;-91
2023/07/19 02:36:37;;;;;;;4.53;1.02;;;17.20;66.40;;;;;;5077546;28;20255;-88
2023/07/19 02:39:11;;;;;;;4.65;1.00;;;17.10;63.90;;;;;;5088587;28;20219;-92
2023/07/19 02:41:43;;;;;;;3.00;0.90;;;17.10;66.40;;;;;;5094168;28;20217;-92
2023/07/19 02:44:14;;;;;;;2.95;0.70;;;17.20;66.40;;;;;;5090691;27;20513;-91
2023/07/19 02:46:46;;;;;;;4.90;1.02;;;17.30;68.70;;;;;;5093922;28;20207;-91
2023/07/19 02:49:17;;;;;;;2.15;0.77;;;17.40;68.70;;;;;;5104594;28;20250;-91
2023/07/19 02:51:48;;;;;;;1.27;0.63;;;17.50;67.80;;;;;;5090181;28;20258;-90
2023/07/19 02:54:23;;;;;;;4.30;1.20;;;17.50;67.70;;;;;;5092306;28;20242;-88
2023/07/19 02:56:54;;;;;;;4.28;1.40;;;17.60;68.90;;;;;;5089690;28;20576;-91
2023/07/19 02:59:25;;;;;;;4.57;1.70;;;17.70;67.40;;;;;;5095852;28;20227;-89
2023/07/19 03:01:56;;;;;;;3.60;1.17;;;17.70;67.10;;;;;;5097179;28;20646;-89
2023/07/19 03:04:29;;;;;;;4.20;1.42;;;17.80;65.80;;;;;;5095373;28;20208;-89
2023/07/19 03:07:00;;;;;;;3.63;0.93;;;17.60;65.30;;;;;;5080522;28;20238;-89
2023/07/19 03:09:36;;;;;;;5.13;0.80;;;17.70;66.80;;;;;;5090982;28;20210;-89
2023/07/19 03:12:11;;;;;;;4.18;1.50;;;17.60;67.00;;;;;;5077729;28;20192;-89
2023/07/19 03:14:42;;;;;;;4.82;2.00;;;17.60;65.20;;;;;;5087257;28;20209;-89
2023/07/19 03:17:14;;;;;;;4.25;1.10;;;17.40;66.30;;;;;;5075168;28;20199;-90
2023/07/19 03:19:48;;;;;;;3.63;0.98;;;17.40;65.90;;;;;;5094058;28;20227;-89
2023/07/19 03:22:20;;;;;;;2.33;0.80;;;17.30;67.10;;;;;;5095041;28;20191;-88
2023/07/19 03:24:54;;;;;;;2.03;0.70;;;17.30;68.10;;;;;;5092363;28;20245;-89
2023/07/19 03:27:29;;;;;;;3.38;1.00;;;17.30;69.00;;;;;;5095649;28;20207;-90
2023/07/19 03:30:01;;;;;;;7.35;1.08;;;17.40;67.00;;;;;;5095164;28;20193;-90
2023/07/19 03:32:33;;;;;;;2.45;0.70;;;17.30;66.70;;;;;;5096196;28;20207;-89
2023/07/19 03:35:05;;;;;;;2.38;0.70;;;17.30;68.90;;;;;;5095797;28;20226;-89
2023/07/19 03:37:36;;;;;;;5.40;1.15;;;17.30;71.00;;;;;;5075262;28;20224;-87
2023/07/19 03:40:11;;;;;;;2.33;1.13;;;17.40;69.50;;;;;;5094937;28;20231;-88
2023/07/19 03:42:42;;;;;;;3.22;1.20;;;17.40;69.80;;;;;;5084334;28;20237;-87
2023/07/19 03:45:14;;;;;;;3.60;1.10;;;17.40;68.70;;;;;;5089042;28;20207;-87
2023/07/19 03:47:45;;;;;;;4.05;1.00;;;17.40;71.20;;;;;;5073706;28;20206;-88
2023/07/19 03:50:16;;;;;;;3.70;1.20;;;17.40;73.60;;;;;;5082582;28;20216;-88
2023/07/19 03:52:47;;;;;;;3.65;0.95;;;17.30;72.90;;;;;;5073254;28;20212;-86
2023/07/19 03:55:21;;;;;;;3.22;1.15;;;17.30;74.40;;;;;;5085423;28;20226;-86
2023/07/19 03:57:52;;;;;;;4.18;1.00;;;17.30;74.80;;;;;;5090748;28;20196;-86
2023/07/19 04:00:26;;;;;;;3.95;1.08;;;17.30;72.50;;;;;;5090521;28;20373;-86
2023/07/19 04:02:58;;;;;;;5.28;1.15;;;17.30;75.20;;;;;;5095695;28;20285;-85
2023/07/19 04:05:29;;;;;;;2.70;1.10;;;17.20;73.00;;;;;;5072751;28;20279;-87
2023/07/19 04:08:01;;;;;;;4.47;1.40;;;17.10;73.50;;;;;;5079589;28;20207;-87
2023/07/19 04:10:34;;;;;;;2.63;0.77;;;17.10;74.70;;;;;;5090611;28;20590;-86
2023/07/19 04:13:05;;;;;;;5.05;1.20;;;17.10;74.00;;;;;;5107915;27;20191;-86
2023/07/19 04:15:37;;;;;;;3.00;0.80;;;17.10;74.20;;;;;;5097044;28;20228;-85
2023/07/19 04:18:09;;;;;;;5.38;1.08;;;17.10;73.80;;;;;;5091155;28;20264;-83
2023/07/19 04:20:40;;;;;;;5.15;1.00;;;17.00;74.30;;;;;;5104359;28;20238;-84
2023/07/19 04:23:11;;;;;;;3.72;1.08;;;17.00;74.70;;;;;;5123090;28;20193;-86
2023/07/19 04:25:44;;;;;;;4.55;1.08;;;16.90;74.30;;;;;;5091357;28;20197;-87
2023/07/19 04:28:16;;;;;;;3.40;0.95;;;16.90;75.00;;;;;;5105661;28;20199;-87
2023/07/19 04:30:48;;;;;;;5.28;1.30;;;16.80;75.20;;;;;;5072463;28;20210;-85
2023/07/19 04:33:20;;;;;;;3.28;1.02;;;16.70;75.90;;;;;;5085473;28;20366;-87
2023/07/19 04:35:52;;;;;;;3.30;0.95;;;16.70;76.30;;;;;;5082353;28;20210;-87
2023/07/19 04:38:23;;;;;;;4.93;1.20;;;16.60;76.60;;;;;;5077848;28;20655;-88
2023/07/19 04:41:06;;;;;;;4.47;1.10;;;16.70;77.10;;;;;;5091740;28;20752;-87
2023/07/19 04:43:40;;;;;;;4.60;1.10;;;16.70;77.80;;;;;;5103025;28;20225;-87
2023/07/19 04:46:13;;;;;;;3.67;0.75;;;16.70;77.70;;;;;;5100575;28;20332;-88
2023/07/19 04:48:44;;;;;;;3.92;0.82;;;16.70;77.10;;;;;;5084059;28;20278;-87
2023/07/19 04:51:15;;;;;;;5.25;1.00;;;16.60;78.60;;;;;;5079391;28;20223;-88
2023/07/19 04:53:47;;;;;;;4.70;0.60;;;16.60;77.80;;;;;;5090121;28;20662;-87
2023/07/19 04:56:21;;;;;;;3.63;1.15;;;16.60;78.00;;;;;;5120107;27;20192;-88
2023/07/19 04:58:52;;;;;;;1.98;0.75;;;16.50;78.10;;;;;;5091752;28;20209;-88
2023/07/19 05:01:25;;;;;;;2.15;0.90;;;16.50;76.90;;;;;;5101660;28;20218;-89
2023/07/19 05:03:56;;;;;;;4.97;0.90;;;16.50;78.20;;;;;;5104922;28;20210;-87
2023/07/19 05:06:27;;;;;;;3.72;1.00;;;16.50;79.50;;;;;;5087834;28;20218;-86
2023/07/19 05:08:58;;;;;;;3.15;0.90;;;16.50;80.30;;;;;;5090131;28;20202;-87
2023/07/19 05:11:33;;;;;;;4.00;1.00;;;16.50;80.50;;;;;;5087488;28;20191;-88
2023/07/19 05:14:04;;;;;;;5.65;1.30;;;16.60;80.70;;;;;;5092650;28;20198;-87
2023/07/19 05:16:36;;;;;;;2.30;0.88;;;16.60;81.40;;;;;;5090343;28;20226;-87
2023/07/19 05:19:09;;;;;;;2.38;0.68;;;16.70;81.60;;;;;;5098189;28;20260;-86
2023/07/19 05:21:41;;;;;;;3.35;0.80;;;16.70;81.70;;;;;;5083262;28;20782;-90
2023/07/19 05:24:12;;;;;;;5.97;1.10;;;16.60;84.30;;;;;;5087188;28;20784;-89
2023/07/19 05:26:46;;;;;;;4.88;1.00;;;16.70;87.50;;;;;;5101878;28;20205;-90
2023/07/19 05:29:19;;;;;;;3.25;1.30;;;16.70;88.30;;;;;;5103854;28;20191;-88
2023/07/19 05:31:51;;;;;;;5.72;1.20;;;16.70;85.30;;;;;;5097990;28;20197;-89
2023/07/19 05:34:25;;;;;;;4.57;1.23;;;16.60;86.90;;;;;;5105329;28;20195;-88
2023/07/19 05:36:58;;;;;;;7.30;1.70;;;16.60;86.40;;;;;;5095897;28;20189;-88
2023/07/19 05:39:30;;;;;;;3.38;1.00;;;16.60;87.40;;;;;;5091045;28;20188;-89
2023/07/19 05:42:07;;;;;;;5.90;1.13;;;16.60;88.10;;;;;;5098782;28;20202;-90
2023/07/19 05:44:38;;;;;;;2.95;0.75;;;16.50;85.90;;;;;;5099836;28;20190;-89
2023/07/19 05:47:13;;;;;;;4.32;1.10;;;16.50;85.70;;;;;;5089012;28;20194;-90
2023/07/19 05:49:44;;;;;;;5.60;1.33;;;16.50;88.10;;;;;;5079459;28;20264;-85
2023/07/19 05:52:15;;;;;;;3.65;1.15;;;16.50;87.80;;;;;;5085285;28;20774;-86
2023/07/19 05:54:47;;;;;;;3.72;1.17;;;16.50;87.30;;;;;;5095545;28;20640;-87
2023/07/19 05:57:20;;;;;;;4.72;1.23;;;16.50;87.50;;;;;;5090953;28;20273;-88
2023/07/19 05:59:51;;;;;;;5.40;1.40;;;16.60;85.50;;;;;;5088970;28;20216;-87
2023/07/19 06:02:23;;;;;;;4.95;1.02;;;16.60;84.90;;;;;;5092761;28;20194;-88
2023/07/19 06:04:54;;;;;;;4.78;1.30;;;16.60;85.90;;;;;;5105394;28;20206;-89
2023/07/19 06:07:25;;;;;;;3.22;1.40;;;16.60;87.10;;;;;;5087776;28;20199;-88
2023/07/19 06:09:57;;;;;;;4.22;0.95;;;16.60;87.40;;;;;;5088138;28;20249;-89
2023/07/19 06:12:31;;;;;;;2.92;0.77;;;16.60;88.10;;;;;;5094332;28;20221;-86
2023/07/19 06:15:02;;;;;;;3.63;1.17;;;16.60;88.70;;;;;;5089418;28;20196;-86
2023/07/19 06:17:33;;;;;;;4.25;1.10;;;16.60;88.90;;;;;;5114886;27;20187;-87
2023/07/19 06:20:05;;;;;;;3.70;1.10;;;16.60;88.20;;;;;;5081417;28;20226;-87
2023/07/19 06:22:37;;;;;;;3.30;1.10;;;16.60;88.10;;;;;;5094303;28;20571;-88
2023/07/19 06:25:10;;;;;;;5.68;1.40;;;16.70;88.60;;;;;;5088323;28;20446;-89
2023/07/19 06:27:44;;;;;;;3.22;1.08;;;16.70;89.40;;;;;;5084170;28;20218;-88
2023/07/19 06:30:17;;;;;;;3.92;1.20;;;16.80;87.00;;;;;;5098454;28;20645;-87
2023/07/19 06:32:48;;;;;;;4.95;1.17;;;16.80;88.00;;;;;;5095444;28;20562;-89
2023/07/19 06:35:19;;;;;;;3.75;1.30;;;16.80;87.90;;;;;;5096036;28;20187;-87
2023/07/19 06:37:51;;;;;;;3.78;1.10;;;16.70;88.90;;;;;;5095388;28;20195;-87
2023/07/19 06:40:22;;;;;;;4.65;1.33;;;16.60;90.30;;;;;;5095200;28;20584;-87
2023/07/19 06:42:55;;;;;;;5.32;1.45;;;16.50;90.60;;;;;;5094277;28;20194;-88
2023/07/19 06:45:26;;;;;;;3.85;1.45;;;16.40;90.80;;;;;;5094579;28;20197;-87
2023/07/19 06:47:57;;;;;;;4.72;1.10;;;16.40;91.40;;;;;;5110354;28;20194;-87
2023/07/19 06:50:28;;;;;;;8.32;1.35;;;16.30;90.30;;;;;;5108448;28;20660;-88
2023/07/19 06:52:59;;;;;;;2.75;1.00;;;16.10;91.10;;;;;;5103361;28;20199;-88
2023/07/19 06:55:31;;;;;;;4.05;1.13;;;16.10;90.80;;;;;;5095284;28;20235;-87
2023/07/19 06:58:04;;;;;;;4.75;1.20;;;16.00;91.30;;;;;;5095446;28;20253;-89
2023/07/19 07:00:35;;;;;;;5.00;1.40;;;15.90;91.80;;;;;;5102517;28;20211;-88
2023/07/19 07:03:06;;;;;;;6.97;1.05;;;15.90;91.90;;;;;;5095329;28;20266;-86
2023/07/19 07:05:38;;;;;;;4.43;1.20;;;15.80;92.30;;;;;;5097872;28;20195;-88
2023/07/19 07:08:09;;;;;;;3.03;1.13;;;15.80;93.00;;;;;;5110288;28;20187;-89
2023/07/19 07:10:44;;;;;;;3.28;1.15;;;15.70;92.60;;;;;;5082679;28;20216;-88
2023/07/19 07:13:17;;;;;;;5.68;1.20;;;15.70;93.10;;;;;;5109102;28;20676;-89
2023/07/19 07:15:49;;;;;;;2.95;1.10;;;15.60;93.60;;;;;;5081904;28;20195;-90
2023/07/19 07:18:22;;;;;;;7.13;1.65;;;15.50;94.10;;;;;;5093605;28;20192;-89
2023/07/19 07:20:55;;;;;;;3.55;1.45;;;15.40;95.30;;;;;;5076347;28;20697;-89
2023/07/19 07:23:26;;;;;;;4.78;1.90;;;15.30;95.50;;;;;;5095678;28;20199;-88
2023/07/19 07:25:57;;;;;;;3.72;1.35;;;15.30;95.50;;;;;;5092661;28;20195;-88
2023/07/19 07:28:30;;;;;;;6.18;2.35;;;15.30;96.30;;;;;;5096965;28;20200;-88
2023/07/19 07:31:08;;;;;;;5.35;1.58;;;15.20;97.00;;;;;;5082434;28;20187;-88
2023/07/19 07:33:40;;;;;;;4.25;1.20;;;15.20;97.40;;;;;;5096846;28;20219;-89
2023/07/19 07:36:14;;;;;;;4.50;1.27;;;15.10;96.90;;;;;;5096811;28;20194;-88
2023/07/19 07:38:48;;;;;;;3.67;1.20;;;15.20;97.00;;;;;;5097164;28;20203;-89
2023/07/19 07:41:19;;;;;;;4.85;1.20;;;15.20;97.30;;;;;;5107199;28;20677;-89
2023/07/19 07:43:52;;;;;;;4.22;1.23;;;15.20;97.70;;;;;;5097396;28;20213;-88
2023/07/19 07:46:24;;;;;;;2.72;1.20;;;15.10;98.30;;;;;;5097853;28;20679;-88
2023/07/19 07:48:59;;;;;;;4.03;1.58;;;15.10;98.70;;;;;;5091856;28;20233;-87
2023/07/19 07:51:31;;;;;;;4.00;1.20;;;15.10;98.80;;;;;;5079979;28;20690;-87
2023/07/19 07:54:02;;;;;;;3.95;1.17;;;15.10;99.40;;;;;;5073583;28;20714;-88
2023/07/19 07:56:34;;;;;;;4.35;1.23;;;15.00;99.10;;;;;;5101994;28;20209;-89
2023/07/19 07:59:15;;;;;;;5.80;2.33;;;15.00;98.90;;;;;;5103881;28;20273;-89
2023/07/19 08:01:46;;;;;;;6.15;2.40;;;15.00;99.50;;;;;;5076303;28;20219;-90
2023/07/19 08:04:17;;;;;;;8.10;2.72;;;15.00;99.90;;;;;;5096048;28;20562;-89
2023/07/19 08:06:48;;;;;;;7.20;3.35;;;15.00;99.90;;;;;;5092697;28;20202;-88
2023/07/19 08:09:19;;;;;;;6.85;3.63;;;15.00;99.90;;;;;;5104758;28;20191;-87
2023/07/19 08:11:50;;;;;;;7.45;3.90;;;14.90;99.90;;;;;;5105320;28;20210;-86
2023/07/19 08:14:24;;;;;;;7.13;3.22;;;14.80;99.90;;;;;;5108631;28;20200;-84
2023/07/19 08:16:55;;;;;;;7.50;3.08;;;14.80;99.90;;;;;;5086656;28;20201;-84
2023/07/19 08:19:26;;;;;;;9.73;4.32;;;14.80;99.90;;;;;;5086833;28;20210;-88
2023/07/19 08:22:02;;;;;;;8.88;3.30;;;14.80;99.90;;;;;;5099221;28;20228;-88
2023/07/19 08:24:33;;;;;;;6.97;2.80;;;14.80;99.90;;;;;;5094278;28;20646;-88
2023/07/19 08:27:05;;;;;;;6.03;2.50;;;14.70;99.90;;;;;;5095091;28;20279;-86
2023/07/19 08:29:38;;;;;;;4.60;1.70;;;14.80;99.90;;;;;;5089057;28;20245;-86
2023/07/19 08:32:09;;;;;;;4.97;1.33;;;14.80;99.90;;;;;;5092618;28;20207;-87
2023/07/19 08:34:40;;;;;;;5.65;1.40;;;14.80;99.90;;;;;;5099918;28;20186;-87
2023/07/19 08:37:12;;;;;;;3.97;1.58;;;14.80;99.90;;;;;;5075226;28;20191;-87
2023/07/19 08:39:43;;;;;;;3.60;1.40;;;14.80;99.90;;;;;;5090244;28;20200;-87
2023/07/19 08:42:15;;;;;;;6.45;1.70;;;14.90;99.90;;;;;;5093166;28;20218;-88
2023/07/19 08:44:49;;;;;;;5.15;1.58;;;14.80;99.90;;;;;;5093443;28;20194;-88
2023/07/19 08:47:21;;;;;;;6.65;1.70;;;14.70;99.90;;;;;;5094425;28;20256;-87
2023/07/19 08:49:54;;;;;;;7.53;3.10;;;14.70;99.90;;;;;;5095126;28;20195;-88
2023/07/19 08:52:25;;;;;;;10.40;4.47;;;14.70;99.90;;;;;;5096888;28;20194;-87
2023/07/19 08:54:57;;;;;;;9.45;3.70;;;14.70;99.90;;;;;;5099765;28;20230;-86
2023/07/19 08:57:28;;;;;;;8.55;3.30;;;14.70;99.90;;;;;;5106593;28;20199;-89
2023/07/19 09:00:03;;;;;;;7.28;3.20;;;14.70;99.90;;;;;;5093547;28;20180;-88
2023/07/19 09:02:34;;;;;;;8.68;3.60;;;14.60;99.90;;;;;;5095777;28;20219;-89
2023/07/19 09:05:09;;;;;;;6.65;3.17;;;14.60;99.90;;;;;;5107156;28;20273;-88
2023/07/19 09:07:45;;;;;;;9.10;3.20;;;14.50;99.90;;;;;;5094250;28;20274;-88
2023/07/19 09:10:16;;;;;;;7.95;2.92;;;14.60;99.90;;;;;;5097986;28;20201;-88
2023/07/19 09:12:48;;;;;;;8.15;3.13;;;14.50;99.90;;;;;;5107237;28;20198;-88
2023/07/19 09:15:22;;;;;;;9.02;3.08;;;14.50;99.90;;;;;;5088924;28;20191;-88
2023/07/19 09:17:54;;;;;;;9.98;3.28;;;14.50;99.90;;;;;;5100833;28;20195;-87
2023/07/19 09:20:30;;;;;;;11.18;4.35;;;14.50;99.90;;;;;;5077453;28;20670;-87
2023/07/19 09:23:05;;;;;;;16.83;6.35;;;14.50;99.90;;;;;;5078025;28;20185;-84
2023/07/19 09:25:52;;;;;;;14.85;5.90;;;14.50;99.90;;;;;;5094424;28;20199;-87
2023/07/19 09:28:27;;;;;;;9.95;5.22;;;14.50;99.90;;;;;;5078220;28;20572;-87
2023/07/19 09:31:06;;;;;;;9.45;4.57;;;14.40;99.90;;;;;;5102323;28;20192;-88
2023/07/19 09:33:37;;;;;;;10.32;4.40;;;14.40;99.90;;;;;;5111578;28;20186;-88
2023/07/19 09:36:08;;;;;;;11.52;4.28;;;14.40;99.90;;;;;;5103912;28;20658;-89
2023/07/19 09:38:40;;;;;;;8.35;3.80;;;14.30;99.90;;;;;;5077777;28;20650;-88
2023/07/19 09:41:12;;;;;;;7.72;3.55;;;14.30;99.90;;;;;;5071654;28;20242;-88
2023/07/19 09:43:45;;;;;;;7.03;2.90;;;14.20;99.90;;;;;;5101581;28;20198;-88
2023/07/19 09:46:18;;;;;;;8.27;2.88;;;14.10;99.90;;;;;;5092596;28;20195;-89
2023/07/19 09:48:50;;;;;;;7.97;3.03;;;14.00;99.90;;;;;;5091751;28;20222;-88
2023/07/19 09:51:24;;;;;;;7.35;2.80;;;14.00;99.90;;;;;;5103219;28;20189;-89
2023/07/19 09:53:57;;;;;;;7.75;3.22;;;14.00;99.90;;;;;;5110457;28;20226;-90
2023/07/19 09:56:35;;;;;;;9.32;3.33;;;14.00;99.90;;;;;;5097943;28;20557;-91
2023/07/19 09:59:11;;;;;;;7.43;3.25;;;14.10;99.90;;;;;;5107946;28;20223;-90
2023/07/19 10:01:46;;;;;;;7.60;3.55;;;14.00;99.90;;;;;;5082209;28;20214;-88
2023/07/19 10:04:27;;;;;;;9.07;4.00;;;14.00;99.90;;;;;;5095800;28;20186;-89
2023/07/19 10:07:11;;;;;;;10.32;4.35;;;13.90;99.90;;;;;;5109097;28;20211;-88
2023/07/19 10:09:44;;;;;;;11.38;3.10;;;13.90;99.90;;;;;;5082310;28;20693;-86
2023/07/19 10:12:29;;;;;;;9.38;3.17;;;13.90;99.90;;;;;;5091269;28;20191;-84
2023/07/19 10:15:02;;;;;;;6.97;2.90;;;13.80;99.90;;;;;;5084550;28;20819;-86
2023/07/19 10:17:43;;;;;;;8.23;2.80;;;13.80;99.90;;;;;;5094506;28;20216;-86
2023/07/19 10:20:15;;;;;;;6.85;2.60;;;13.80;99.90;;;;;;5098577;28;20191;-86
2023/07/19 10:22:57;;;;;;;7.72;2.67;;;13.80;99.90;;;;;;5098094;28;20242;-87
2023/07/19 10:25:31;;;;;;;8.60;2.83;;;13.80;99.90;;;;;;5093340;28;20191;-87
2023/07/19 10:28:04;;;;;;;5.75;2.50;;;13.90;99.90;;;;;;5088444;28;20190;-87
2023/07/19 10:30:55;;;;;;;7.85;3.42;;;13.80;99.90;;;;;;5091115;28;20211;-86
2023/07/19 10:33:30;;;;;;;6.57;2.80;;;13.70;99.90;;;;;;5083799;28;20230;-85
2023/07/19 10:36:07;;;;;;;6.05;2.65;;;13.70;99.90;;;;;;5088646;28;20219;-88
2023/07/19 10:38:40;;;;;;;7.72;2.70;;;13.70;99.90;;;;;;5093866;28;20194;-86
2023/07/19 10:41:12;;;;;;;4.72;2.28;;;13.70;99.90;;;;;;5088183;28;20228;-85
2023/07/19 10:43:44;;;;;;;6.07;3.20;;;13.70;99.90;;;;;;5100367;28;20187;-86
2023/07/19 10:46:15;;;;;;;10.30;2.90;;;13.60;99.90;;;;;;5104564;28;20211;-87
2023/07/19 10:48:49;;;;;;;8.07;2.83;;;13.60;99.90;;;;;;5101755;28;20195;-86
2023/07/19 10:51:24;;;;;;;5.85;2.53;;;13.60;99.90;;;;;;5099237;28;20206;-86
2023/07/19 10:53:58;;;;;;;9.07;3.65;;;13.50;99.90;;;;;;5099034;28;20297;-87
2023/07/19 10:56:30;;;;;;;5.45;2.90;;;13.50;99.90;;;;;;5093668;28;20720;-87
2023/07/19 10:59:04;;;;;;;7.35;2.80;;;13.40;99.90;;;;;;5101977;28;20596;-87
2023/07/19 11:01:37;;;;;;;7.60;2.70;;;13.50;99.90;;;;;;5094376;28;20211;-85
2023/07/19 11:04:11;;;;;;;9.35;3.45;;;13.50;99.90;;;;;;5102972;28;20210;-87
2023/07/19 11:06:59;;;;;;;8.52;4.15;;;13.40;99.90;;;;;;5088059;28;20199;-87
2023/07/19 11:09:30;;;;;;;10.60;4.10;;;13.40;99.90;;;;;;5102709;28;20640;-88
2023/07/19 11:12:03;;;;;;;8.50;3.30;;;13.40;99.90;;;;;;5092628;28;20191;-89
2023/07/19 11:14:37;;;;;;;8.13;3.80;;;13.40;99.90;;;;;;5105146;28;20202;-88
2023/07/19 11:17:08;;;;;;;7.30;3.67;;;13.40;99.90;;;;;;5097727;28;20566;-88
2023/07/19 11:19:52;;;;;;;7.22;3.80;;;13.40;99.90;;;;;;5109746;28;20213;-90
2023/07/19 11:22:27;;;;;;;9.68;3.60;;;13.40;99.90;;;;;;5090597;28;20235;-90
2023/07/19 11:25:02;;;;;;;10.35;3.75;;;13.40;99.90;;;;;;5085311;28;20199;-89
2023/07/19 11:27:45;;;;;;;7.68;3.88;;;13.40;99.90;;;;;;5090101;28;20202;-89
2023/07/19 11:30:17;;;;;;;10.45;3.72;;;13.30;99.90;;;;;;5104481;28;20206;-90
2023/07/19 11:33:13;;;;;;;9.82;4.32;;;13.30;99.90;;;;;;5119632;28;20657;-91
2023/07/19 11:35:59;;;;;;;10.38;4.53;;;13.20;99.90;;;;;;5127999;28;20235;-90
2023/07/19 11:38:38;;;;;;;11.65;4.20;;;13.20;99.90;;;;;;5084217;28;20180;-89
2023/07/19 11:41:12;;;;;;;10.75;3.92;;;13.10;99.90;;;;;;5087143;28;20199;-89
2023/07/19 11:43:48;;;;;;;10.48;4.07;;;13.00;99.90;;;;;;5111444;28;20217;-88
2023/07/19 11:46:25;;;;;;;10.88;4.32;;;13.00;99.90;;;;;;5085213;28;20211;-90
2023/07/19 11:49:09;;;;;;;10.73;4.05;;;13.10;99.90;;;;;;5122835;27;20179;-87
2023/07/19 11:51:48;;;;;;;10.52;4.55;;;13.00;99.90;;;;;;5110352;28;20203;-89
2023/07/19 11:54:20;;;;;;;10.65;4.47;;;13.00;99.90;;;;;;5122073;28;20305;-89
2023/07/19 11:56:59;;;;;;;8.90;4.57;;;12.90;99.90;;;;;;5106873;28;20199;-87
2023/07/19 11:59:32;;;;;;;9.65;4.40;;;12.80;99.90;;;;;;5099659;28;20228;-87
2023/07/19 12:02:09;;;;;;;10.45;4.82;;;12.80;99.90;;;;;;5108176;28;20306;-86
2023/07/19 12:04:46;;;;;;;9.05;4.80;;;12.90;99.90;;;;;;5101895;28;20207;-90
2023/07/19 12:07:23;;;;;;;11.73;5.63;;;12.80;99.90;;;;;;5100497;28;20195;-88
2023/07/19 12:09:55;;;;;;;11.98;5.30;;;12.80;99.90;;;;;;5101658;28;20306;-90
2023/07/19 12:12:28;;;;;;;9.70;4.97;;;12.80;99.90;;;;;;5108707;28;20269;-90
2023/07/19 12:15:10;;;;;;;10.77;4.63;;;12.80;99.90;;;;;;5113933;28;20195;-90
2023/07/19 12:17:48;;;;;;;13.70;5.13;;;12.70;99.90;;;;;;5103988;28;20247;-89
2023/07/19 12:20:21;;;;;;;12.32;5.10;;;12.60;99.90;;;;;;5123151;28;20217;-86
2023/07/19 12:23:01;;;;;;;12.18;4.80;;;12.60;99.90;;;;;;5111942;28;20219;-88
2023/07/19 12:25:47;;;;;;;12.85;5.25;;;12.60;99.90;;;;;;5115597;28;20186;-88
2023/07/19 12:31:14;;;;;;;12.07;5.05;;;12.50;99.90;;;;;;5085124;28;20201;-89
2023/07/19 12:33:50;;;;;;;10.10;4.63;;;12.50;99.90;;;;;;5119206;28;20202;-89
2023/07/19 12:36:23;;;;;;;12.68;4.82;;;12.60;99.90;;;;;;5118385;28;20194;-87
2023/07/19 12:39:00;;;;;;;11.60;4.60;;;12.50;99.90;;;;;;5106359;28;20223;-88
2023/07/19 12:41:33;;;;;;;11.30;4.90;;;12.60;99.90;;;;;;5080756;28;20199;-86
2023/07/19 12:44:12;;;;;;;10.02;4.72;;;12.60;99.90;;;;;;5080651;28;20234;-83
2023/07/19 12:46:46;;;;;;;10.63;5.10;;;12.60;99.90;;;;;;5094265;28;20231;-87
2023/07/19 12:49:20;;;;;;;10.35;4.57;;;12.50;99.90;;;;;;5101848;28;20200;-87
2023/07/19 12:51:54;;;;;;;9.77;4.90;;;12.50;99.90;;;;;;5098766;28;20194;-84
2023/07/19 12:54:29;;;;;;;9.98;4.80;;;12.50;99.90;;;;;;5113912;28;20222;-88
2023/07/19 12:57:03;;;;;;;11.88;4.78;;;12.50;99.90;;;;;;5118482;28;20192;-88
2023/07/19 12:59:40;;;;;;;11.90;4.97;;;12.50;99.90;;;;;;5120576;28;20204;-86
2023/07/19 13:02:19;;;;;;;9.43;4.47;;;12.50;99.90;;;;;;5125978;28;20285;-88
2023/07/19 13:04:52;;;;;;;10.27;5.03;;;12.50;99.90;;;;;;5117579;28;20217;-87
2023/07/19 13:07:23;;;;;;;10.23;4.10;;;12.50;99.90;;;;;;5100348;28;20203;-86
2023/07/19 13:10:00;;;;;;;8.52;4.40;;;12.40;99.90;;;;;;5106331;28;20285;-85
2023/07/19 13:12:31;;;;;;;11.13;4.90;;;12.40;99.90;;;;;;5104180;28;20290;-86
2023/07/19 13:15:04;;;;;;;8.75;4.45;;;12.40;99.90;;;;;;5076299;28;20186;-87
2023/07/19 13:17:36;;;;;;;11.20;4.95;;;12.40;99.90;;;;;;5076938;28;20270;-87
2023/07/19 13:20:09;;;;;;;9.77;4.65;;;12.40;99.90;;;;;;5106305;28;20192;-87